Grider Field
KPBF : rendu visible

Aérodrome :











RETROUVEZ-NOUS SUR...

 
LOGIN :

S'inscrire | Disclaimer

   EN    FR    IT 

 









Légende :    VFR   VFR Marginal   IFR   IFR Intensif   IFR Très Intensif
Visi : 
Plafond : 
>= 8 km
>= 3000ft
5 à 8 km
1000 à 3000 ft
1500m à 5 km
500 à 1000 ft
800 à 1500m
200 à 500 ft
< 800m
< 200 ft
Symboles :   Orages  Brouillard  Fortes neiges  Fortes précipitations  Vent > 20 kt






- Altitude de l'aérodrome : 206 ft


KPBF - Grider Field

DERNIER METAR :
  • 240053Z AUTO 00000KT 10SM CLR 08/04 A3025 RMK AO2 SLP242 T00830039

METARs EXPIRÉS :
  • 232353Z AUTO 10004KT 10SM CLR 09/04 A3025 RMK AO2 SLP243 T00890044 10139 20089 56008
  • 232253Z AUTO 07003KT 10SM CLR 11/03 A3026 RMK AO2 SLP246 T01060033

TAF KPBF
Valide du 24 à 00h jusqu'au 25 à 00h UTC


232320Z 2400/2424 VRB03KT P6SM FEW250
FM241500 15010KT P6SM OVC100
FIR KZME / Amérique du Nord



MET'MAP, la Météo Aéronautique d'un coup d'oeil ! - Copyright ORBIFLY Décembre 2007 - Disclaimer

ORBIFLY MET'MAP TEAM :

Programmation & Développement : Alexandra Zaïnal
Sur une idée originale de : Baudouin d'Aumeries
Assistance à la programmation : Marc-Olivier Méhu
Soutien technique & logistique : Manuel Goepfert

Contact : metmap@orbifly.com




SOURCES & CREDITS :

   NOAA       Earth
Advisory